createdAt,value
2022-10-14T00:01:19.148Z,90.31
2022-10-14T00:03:47.751Z,88.74
2022-10-14T00:06:19.950Z,90.60
2022-10-14T00:08:48.338Z,92.51
2022-10-14T00:11:20.395Z,93.64
2022-10-14T00:13:48.763Z,94.64
2022-10-14T00:16:19.235Z,94.11
2022-10-14T00:18:47.212Z,91.46
2022-10-14T00:21:15.733Z,89.47
2022-10-14T00:23:44.035Z,88.19
2022-10-14T00:26:18.780Z,86.89
2022-10-14T00:28:47.186Z,86.16
2022-10-14T00:31:15.833Z,85.45
2022-10-14T00:33:45.443Z,85.35
2022-10-14T00:36:14.867Z,85.28
2022-10-14T00:38:43.242Z,84.95
2022-10-14T00:41:20.768Z,84.77
2022-10-14T00:43:58.278Z,84.66
2022-10-14T00:46:27.913Z,84.41
2022-10-14T00:49:04.698Z,83.95
2022-10-14T00:51:32.783Z,83.50
2022-10-14T00:54:03.004Z,84.62
2022-10-14T00:56:32.745Z,85.14
2022-10-14T00:59:01.796Z,84.62
2022-10-14T01:01:29.530Z,84.47
2022-10-14T01:03:59.427Z,83.42
2022-10-14T01:06:42.493Z,82.06
2022-10-14T01:09:23.632Z,83.12
2022-10-14T01:12:27.023Z,82.96
2022-10-14T01:14:59.832Z,83.04
2022-10-14T01:17:36.712Z,82.73
2022-10-14T01:20:28.716Z,82.14
2022-10-14T01:23:09.055Z,81.39
2022-10-14T01:25:50.477Z,80.83
2022-10-14T01:28:27.292Z,81.29
2022-10-14T01:31:01.864Z,81.79
2022-10-14T01:33:36.864Z,82.49
2022-10-14T01:36:11.073Z,82.31
2022-10-14T01:38:42.545Z,81.79
2022-10-14T01:41:15.738Z,82.37
2022-10-14T01:43:47.351Z,82.74
2022-10-14T01:46:20.980Z,82.32
2022-10-14T01:48:53.420Z,82.49
2022-10-14T01:51:24.732Z,82.47
2022-10-14T01:53:57.732Z,82.71
2022-10-14T01:56:28.326Z,86.36
2022-10-14T01:58:57.274Z,85.05
2022-10-14T02:01:26.625Z,83.83
2022-10-14T02:03:54.650Z,83.62
2022-10-14T02:06:26.162Z,83.18
2022-10-14T02:09:04.173Z,82.75
2022-10-14T02:11:38.984Z,82.38
2022-10-14T02:14:14.185Z,83.21
2022-10-14T02:16:50.990Z,84.03
2022-10-14T02:19:28.100Z,84.47
2022-10-14T02:22:03.009Z,84.61
2022-10-14T02:24:36.461Z,84.61
2022-10-14T02:27:10.795Z,85.23
2022-10-14T02:29:43.633Z,84.56
2022-10-14T02:32:16.179Z,85.09
2022-10-14T02:34:46.538Z,85.79
2022-10-14T02:37:16.922Z,85.97
2022-10-14T02:39:50.423Z,85.46
2022-10-14T02:42:18.245Z,86.02
2022-10-14T02:44:55.831Z,88.18
2022-10-14T02:47:25.013Z,86.58
2022-10-14T02:49:53.429Z,85.78
2022-10-14T02:52:25.168Z,85.35
2022-10-14T02:54:54.459Z,84.66
2022-10-14T02:57:23.330Z,84.75
2022-10-14T02:59:51.283Z,84.35
2022-10-14T03:02:19.399Z,84.36
2022-10-14T03:04:49.754Z,84.47
2022-10-14T03:07:18.102Z,83.85
2022-10-14T03:09:49.842Z,87.59
2022-10-14T03:12:18.660Z,88.16
2022-10-14T03:14:46.569Z,89.53
2022-10-14T03:17:17.473Z,90.00
2022-10-14T03:19:46.338Z,87.84
2022-10-14T03:22:17.911Z,86.72
2022-10-14T03:24:45.950Z,85.84
2022-10-14T03:27:40.195Z,85.17
2022-10-14T03:30:12.750Z,84.88
2022-10-14T03:32:52.102Z,84.37
2022-10-14T03:35:23.072Z,84.23
2022-10-14T03:37:59.312Z,84.16
2022-10-14T03:40:31.663Z,84.29
2022-10-14T03:43:02.121Z,84.18
2022-10-14T03:45:37.994Z,84.44
2022-10-14T03:48:07.055Z,84.86
2022-10-14T03:50:39.702Z,84.46
2022-10-14T03:53:10.834Z,83.80
2022-10-14T03:55:40.937Z,83.64
2022-10-14T03:58:10.897Z,82.70
2022-10-14T04:00:38.795Z,84.24
2022-10-14T04:03:20.024Z,84.66
2022-10-14T04:05:47.766Z,85.03
2022-10-14T04:08:20.553Z,85.54
2022-10-14T04:10:55.661Z,84.94
2022-10-14T04:13:24.684Z,84.43
2022-10-14T04:15:52.488Z,84.20
2022-10-14T04:18:24.767Z,83.86
2022-10-14T04:20:56.118Z,83.67
2022-10-14T04:23:27.621Z,83.10
2022-10-14T04:26:04.626Z,83.26
2022-10-14T04:28:33.151Z,83.18
2022-10-14T04:31:09.288Z,83.79
2022-10-14T04:33:49.210Z,83.61
2022-10-14T04:36:23.041Z,83.53
2022-10-14T04:38:52.159Z,83.45
2022-10-14T04:41:20.059Z,83.42
2022-10-14T04:43:49.988Z,83.11
2022-10-14T04:46:25.040Z,83.17
2022-10-14T04:48:53.009Z,82.85
2022-10-14T04:51:23.568Z,83.15
2022-10-14T04:54:18.675Z,87.08
2022-10-14T04:56:52.024Z,86.26
2022-10-14T04:59:20.734Z,86.69
2022-10-14T05:02:08.760Z,86.53
2022-10-14T05:04:44.480Z,86.82
2022-10-14T05:07:12.959Z,86.97
2022-10-14T05:09:46.300Z,85.99
2022-10-14T05:12:27.588Z,85.42
2022-10-14T05:15:00.317Z,87.52
2022-10-14T05:17:36.464Z,87.34
2022-10-14T05:20:05.204Z,86.76
2022-10-14T05:22:33.628Z,86.00
2022-10-14T05:25:03.123Z,85.65
2022-10-14T05:27:31.438Z,85.04
2022-10-14T05:30:03.666Z,84.41
2022-10-14T05:32:32.172Z,84.60
2022-10-14T05:35:06.715Z,84.68
2022-10-14T05:37:38.748Z,83.98
2022-10-14T05:40:11.211Z,83.76
2022-10-14T05:42:39.235Z,85.45
2022-10-14T05:45:07.936Z,85.78
2022-10-14T05:47:39.638Z,85.59
2022-10-14T05:50:15.112Z,85.33
2022-10-14T05:52:45.426Z,84.42
2022-10-14T05:55:26.355Z,85.55
2022-10-14T05:57:59.116Z,85.39
2022-10-14T06:00:33.038Z,85.16
2022-10-14T06:03:05.936Z,87.25
2022-10-14T06:05:36.844Z,87.65
2022-10-14T06:08:05.003Z,86.54
2022-10-14T06:10:37.223Z,88.36
2022-10-14T06:13:05.250Z,89.19
2022-10-14T06:15:36.241Z,89.84
2022-10-14T06:18:04.344Z,88.68
2022-10-14T06:20:33.335Z,89.74
2022-10-14T06:23:02.208Z,90.39
2022-10-14T06:25:32.331Z,89.67
2022-10-14T06:28:05.225Z,88.96
2022-10-14T06:30:33.024Z,87.97
2022-10-14T06:33:00.731Z,86.90
2022-10-14T06:35:28.982Z,86.22
2022-10-14T06:37:57.435Z,85.62
2022-10-14T06:40:27.558Z,85.61
2022-10-14T06:42:55.398Z,85.14
2022-10-14T06:45:26.935Z,84.64
2022-10-14T06:47:54.620Z,84.93
2022-10-14T06:50:22.380Z,84.58
2022-10-14T06:52:50.124Z,84.40
2022-10-14T06:55:18.147Z,84.45
2022-10-14T06:57:45.960Z,84.51
2022-10-14T07:00:14.517Z,84.93
2022-10-14T07:02:46.031Z,85.45
2022-10-14T07:05:13.849Z,86.77
2022-10-14T07:07:41.627Z,87.34
2022-10-14T07:10:10.213Z,86.89
2022-10-14T07:12:38.018Z,86.26
2022-10-14T07:15:06.494Z,85.88
2022-10-14T07:17:34.218Z,85.76
2022-10-14T07:20:03.328Z,86.42
2022-10-14T07:22:35.033Z,86.57
2022-10-14T07:25:06.370Z,87.73
2022-10-14T07:27:34.126Z,87.80
2022-10-14T07:30:05.362Z,86.87
2022-10-14T07:32:33.811Z,85.92
2022-10-14T07:35:02.981Z,85.90
2022-10-14T07:37:30.681Z,85.15
2022-10-14T07:39:58.570Z,85.62
2022-10-14T07:42:26.348Z,85.60
2022-10-14T07:44:57.610Z,84.08
2022-10-14T07:47:25.346Z,84.25
2022-10-14T07:49:53.125Z,83.85
2022-10-14T07:52:22.318Z,83.25
2022-10-14T07:54:52.443Z,83.39
2022-10-14T07:57:20.898Z,83.58
2022-10-14T07:59:48.844Z,82.00
2022-10-14T08:02:16.565Z,82.62
2022-10-14T08:04:44.288Z,84.01
2022-10-14T08:07:14.203Z,83.94
2022-10-14T08:09:43.278Z,84.42
2022-10-14T08:12:11.337Z,83.22
2022-10-14T08:14:41.509Z,82.85
2022-10-14T08:17:09.267Z,82.17
2022-10-14T08:19:37.069Z,83.37
2022-10-14T08:22:04.805Z,82.60
2022-10-14T08:24:32.490Z,82.08
2022-10-14T08:27:01.541Z,82.38
2022-10-14T08:29:29.462Z,82.18
2022-10-14T08:31:57.221Z,83.13
2022-10-14T08:34:27.952Z,83.00
2022-10-14T08:36:55.732Z,83.50
2022-10-14T08:39:23.516Z,82.33
2022-10-14T08:42:16.105Z,83.28
2022-10-14T08:44:51.020Z,83.25
2022-10-14T08:47:26.647Z,82.33
2022-10-14T08:50:02.495Z,83.16
2022-10-14T08:52:37.216Z,82.38
2022-10-14T08:55:17.481Z,81.13
2022-10-14T08:57:55.028Z,81.02
2022-10-14T09:00:23.621Z,81.43
2022-10-14T09:02:53.134Z,80.64
2022-10-14T09:05:23.696Z,80.34
2022-10-14T09:07:54.745Z,80.81
2022-10-14T09:10:30.112Z,80.39
2022-10-14T09:13:10.916Z,79.62
2022-10-14T09:15:42.177Z,78.42
2022-10-14T09:18:22.483Z,79.46
2022-10-14T09:20:50.707Z,78.80
2022-10-14T09:23:20.092Z,78.87
2022-10-14T09:25:56.817Z,78.54
2022-10-14T09:28:34.536Z,78.67
2022-10-14T09:31:02.477Z,77.94
2022-10-14T09:33:30.430Z,77.36
2022-10-14T09:38:27.938Z,77.18
2022-10-14T09:40:59.262Z,77.30
2022-10-14T09:43:29.741Z,76.60
2022-10-14T09:46:00.581Z,76.72
2022-10-14T09:48:37.401Z,76.78
2022-10-14T09:51:08.808Z,75.89
2022-10-14T09:53:41.143Z,76.39
2022-10-14T09:56:11.227Z,75.77
2022-10-14T09:58:47.021Z,76.01
2022-10-14T10:01:20.490Z,75.27
2022-10-14T10:03:50.325Z,73.76
2022-10-14T10:06:21.366Z,74.71
2022-10-14T10:08:58.014Z,74.86
2022-10-14T10:11:30.428Z,75.14
2022-10-14T10:14:16.827Z,74.39
2022-10-14T10:16:44.859Z,72.04
2022-10-14T10:19:28.160Z,73.23
2022-10-14T10:22:16.743Z,72.79
2022-10-14T10:24:45.365Z,73.93
2022-10-14T10:27:21.768Z,73.13
2022-10-14T10:29:51.039Z,73.79
2022-10-14T10:32:30.162Z,73.11
2022-10-14T10:35:20.947Z,72.94
2022-10-14T10:38:06.707Z,72.60
2022-10-14T10:40:41.184Z,70.89
2022-10-14T10:43:38.309Z,72.63
2022-10-14T10:46:25.611Z,72.81
2022-10-14T10:49:01.650Z,70.91
2022-10-14T10:51:35.599Z,70.86
2022-10-14T10:54:09.140Z,71.16
2022-10-14T10:56:43.733Z,71.24
2022-10-14T10:59:33.616Z,71.08
2022-10-14T11:02:34.113Z,70.10
2022-10-14T11:05:11.163Z,69.73
2022-10-14T11:08:08.906Z,70.09
2022-10-14T11:11:06.706Z,70.03
2022-10-14T11:13:46.472Z,72.02
2022-10-14T11:16:20.017Z,71.61
2022-10-14T11:18:51.856Z,72.34
2022-10-14T11:21:30.598Z,72.50
2022-10-14T11:24:06.852Z,72.12
2022-10-14T11:26:53.728Z,72.73
2022-10-14T11:29:39.778Z,72.86
2022-10-14T11:32:16.353Z,78.02
2022-10-14T11:34:54.075Z,79.70
2022-10-14T11:37:30.351Z,78.40
2022-10-14T11:40:01.617Z,77.43
2022-10-14T11:42:49.892Z,77.82
2022-10-14T11:45:41.259Z,77.67
2022-10-14T11:48:19.742Z,76.80
2022-10-14T11:50:56.417Z,76.56
2022-10-14T11:56:29.172Z,77.18
2022-10-14T11:59:03.170Z,76.62
2022-10-14T12:01:49.159Z,75.71
2022-10-14T12:04:25.645Z,75.94
2022-10-14T12:07:04.507Z,74.67
2022-10-14T12:09:39.807Z,75.03
2022-10-14T12:12:12.708Z,74.84
2022-10-14T12:14:45.925Z,74.50
2022-10-14T12:17:22.184Z,73.95
2022-10-14T12:19:51.233Z,73.65
2022-10-14T12:22:23.941Z,74.76
2022-10-14T12:24:54.044Z,73.01
2022-10-14T12:27:23.901Z,73.51
2022-10-14T12:29:55.621Z,73.84
2022-10-14T12:32:26.297Z,73.10
2022-10-14T12:34:55.535Z,71.60
2022-10-14T12:37:52.832Z,72.27
2022-10-14T12:40:31.582Z,71.39
2022-10-14T12:43:21.560Z,71.03
2022-10-14T12:45:55.763Z,71.31
2022-10-14T12:48:25.271Z,69.89
2022-10-14T12:50:58.997Z,71.54
2022-10-14T12:53:32.776Z,70.62
2022-10-14T12:56:02.371Z,69.78
2022-10-14T12:58:36.209Z,70.32
2022-10-14T13:01:07.870Z,70.74
2022-10-14T13:03:47.118Z,71.09
2022-10-14T13:06:42.232Z,72.14
2022-10-14T13:09:41.693Z,70.70
2022-10-14T13:12:40.892Z,69.51
2022-10-14T13:16:00.694Z,69.44
2022-10-14T13:18:52.857Z,70.38
2022-10-14T13:21:54.128Z,69.68
2022-10-14T13:24:27.631Z,69.65
2022-10-14T13:27:09.082Z,69.57
2022-10-14T13:29:57.584Z,69.79
2022-10-14T13:32:35.014Z,71.00
2022-10-14T13:35:15.094Z,70.60
2022-10-14T13:37:46.594Z,69.87
2022-10-14T13:40:23.753Z,69.50
2022-10-14T13:42:56.152Z,70.16
2022-10-14T13:45:31.774Z,68.84
2022-10-14T13:47:59.826Z,68.95
2022-10-14T13:50:36.574Z,69.86
2022-10-14T13:53:07.952Z,68.88
2022-10-14T13:55:44.920Z,67.83
2022-10-14T13:58:16.412Z,69.15
2022-10-14T14:00:52.984Z,69.87
2022-10-14T14:03:25.540Z,69.78
2022-10-14T14:05:54.550Z,70.14
2022-10-14T14:08:43.141Z,70.27
2022-10-14T14:11:19.200Z,69.99
2022-10-14T14:14:00.283Z,70.92
2022-10-14T14:16:33.569Z,71.13
2022-10-14T14:19:08.864Z,71.71
2022-10-14T14:21:37.699Z,73.45
2022-10-14T14:24:18.876Z,73.15
2022-10-14T14:26:54.846Z,76.77
2022-10-14T14:29:28.732Z,79.03
2022-10-14T14:32:07.229Z,79.05
2022-10-14T14:34:37.414Z,78.92
2022-10-14T14:37:25.179Z,80.23
2022-10-14T14:39:58.721Z,78.34
2022-10-14T14:42:28.317Z,79.58
2022-10-14T14:45:03.923Z,80.28
2022-10-14T14:47:32.692Z,81.95
2022-10-14T14:50:25.553Z,79.78
2022-10-14T14:52:51.476Z,78.88
2022-10-14T14:55:37.090Z,78.98
2022-10-14T14:58:07.582Z,79.29
2022-10-14T15:00:36.714Z,78.83
2022-10-14T15:03:06.532Z,78.89
2022-10-14T15:05:34.580Z,78.83
2022-10-14T15:08:03.559Z,78.51
2022-10-14T15:10:31.897Z,77.86
2022-10-14T15:13:02.629Z,78.26
2022-10-14T15:15:34.915Z,78.32
2022-10-14T15:18:16.468Z,79.88
2022-10-14T15:20:44.427Z,80.91
2022-10-14T15:23:40.909Z,81.48
2022-10-14T15:26:22.931Z,79.80
2022-10-14T15:29:16.580Z,80.10
2022-10-14T15:31:46.389Z,78.07
2022-10-14T15:34:23.162Z,78.71
2022-10-14T15:36:53.949Z,78.11
2022-10-14T15:39:22.689Z,79.68
2022-10-14T15:41:50.531Z,79.61
2022-10-14T15:44:18.259Z,80.23
2022-10-14T15:47:04.729Z,79.48
2022-10-14T15:49:40.059Z,80.28
2022-10-14T15:52:08.297Z,80.27
2022-10-14T15:54:36.017Z,80.89
2022-10-14T15:57:05.873Z,79.67
2022-10-14T15:59:36.034Z,79.83
2022-10-14T16:02:05.135Z,79.76
2022-10-14T16:04:35.201Z,80.21
2022-10-14T16:07:03.102Z,79.31
2022-10-14T16:09:31.175Z,80.05
2022-10-14T16:12:00.944Z,80.80
2022-10-14T16:14:29.021Z,81.41
2022-10-14T16:16:58.262Z,80.17
2022-10-14T16:19:26.300Z,80.35
2022-10-14T16:21:55.663Z,80.42
2022-10-14T16:24:25.544Z,81.29
2022-10-14T16:26:53.874Z,81.09
2022-10-14T16:29:22.415Z,80.98
2022-10-14T16:31:50.967Z,81.59
2022-10-14T16:34:19.683Z,81.22
2022-10-14T16:36:48.772Z,81.69
2022-10-14T16:39:19.219Z,83.14
2022-10-14T16:41:48.338Z,83.59
2022-10-14T16:44:25.233Z,83.41
2022-10-14T16:47:11.387Z,83.73
2022-10-14T16:49:39.802Z,84.64
2022-10-14T16:52:08.935Z,84.05
2022-10-14T16:54:38.201Z,83.64
2022-10-14T16:57:06.463Z,82.77
2022-10-14T16:59:34.359Z,82.57
2022-10-14T17:02:02.253Z,82.99
2022-10-14T17:04:30.031Z,82.85
2022-10-14T17:07:07.177Z,82.55
2022-10-14T17:09:36.067Z,81.90
2022-10-14T17:12:09.631Z,83.46
2022-10-14T17:14:42.979Z,83.36
2022-10-14T17:17:12.366Z,82.79
2022-10-14T17:19:40.178Z,82.73
2022-10-14T17:22:07.852Z,84.43
2022-10-14T17:24:35.640Z,82.52
2022-10-14T17:27:05.311Z,82.06
2022-10-14T17:29:33.395Z,81.21
2022-10-14T17:32:01.091Z,81.43
2022-10-14T17:34:28.781Z,80.46
2022-10-14T17:37:00.650Z,80.08
2022-10-14T17:39:29.758Z,79.89
2022-10-14T17:41:57.837Z,80.22
2022-10-14T17:44:28.682Z,80.32
2022-10-14T17:46:56.881Z,80.42
2022-10-14T17:49:24.670Z,80.10
2022-10-14T17:51:52.731Z,80.41
2022-10-14T17:54:21.007Z,80.61
2022-10-14T17:56:48.905Z,80.19
2022-10-14T17:59:16.623Z,81.97
2022-10-14T18:04:33.653Z,82.69
2022-10-14T18:07:01.618Z,82.32
2022-10-14T18:09:29.494Z,82.31
2022-10-14T18:12:13.427Z,83.62
2022-10-14T18:14:42.161Z,83.30
2022-10-14T18:17:12.958Z,81.91
2022-10-14T18:19:41.769Z,82.00
2022-10-14T18:22:10.959Z,80.96
2022-10-14T18:24:39.233Z,80.44
2022-10-14T18:27:07.074Z,81.93
2022-10-14T18:29:34.775Z,82.23
2022-10-14T18:32:02.598Z,81.93
2022-10-14T18:34:32.117Z,82.12
2022-10-14T18:36:59.931Z,83.65
2022-10-14T18:39:27.748Z,85.21
2022-10-14T18:41:55.504Z,85.22
2022-10-14T18:44:25.636Z,84.88
2022-10-14T18:46:53.403Z,86.68
2022-10-14T18:49:21.081Z,88.93
2022-10-14T18:51:50.529Z,89.30
2022-10-14T18:54:20.118Z,90.67
2022-10-14T18:56:48.621Z,91.02
2022-10-14T18:59:18.760Z,92.63
2022-10-14T19:01:47.714Z,93.01
2022-10-14T19:04:16.632Z,92.08
2022-10-14T19:06:48.765Z,90.84
2022-10-14T19:09:21.288Z,92.28
2022-10-14T19:11:51.900Z,92.47
2022-10-14T19:14:20.660Z,92.94
2022-10-14T19:16:49.619Z,93.35
2022-10-14T19:19:20.078Z,92.33
2022-10-14T19:21:50.821Z,92.46
2022-10-14T19:24:20.135Z,94.80
2022-10-14T19:26:48.840Z,92.22
2022-10-14T19:29:17.075Z,91.36
2022-10-14T19:31:45.088Z,91.43
2022-10-14T19:34:14.910Z,92.92
2022-10-14T19:36:45.865Z,92.23
2022-10-14T19:39:15.655Z,91.67
2022-10-14T19:41:46.435Z,90.25
2022-10-14T19:44:15.799Z,90.33
2022-10-14T19:46:44.242Z,89.39
2022-10-14T19:49:13.567Z,88.54
2022-10-14T19:51:41.603Z,90.15
2022-10-14T19:54:11.751Z,91.20
2022-10-14T19:56:39.602Z,91.97
2022-10-14T19:59:09.007Z,92.11
2022-10-14T20:01:37.162Z,91.35
2022-10-14T20:04:04.935Z,91.84
2022-10-14T20:06:34.300Z,92.45
2022-10-14T20:09:05.084Z,92.17
2022-10-14T20:11:32.849Z,92.42
2022-10-14T20:14:00.721Z,92.99
2022-10-14T20:16:30.023Z,91.97
2022-10-14T20:18:57.762Z,91.06
2022-10-14T20:21:26.280Z,92.06
2022-10-14T20:23:53.987Z,93.47
2022-10-14T20:26:23.001Z,94.14
2022-10-14T20:28:54.428Z,92.80
2022-10-14T20:31:26.115Z,93.87
2022-10-14T20:33:56.039Z,94.25
2022-10-14T20:36:24.198Z,93.99
2022-10-14T20:38:52.214Z,93.38
2022-10-14T20:41:22.070Z,93.03
2022-10-14T20:43:50.167Z,93.03
2022-10-14T20:46:21.848Z,93.24
2022-10-14T20:48:53.635Z,93.82
2022-10-14T20:51:25.263Z,94.90
2022-10-14T20:54:01.667Z,94.89
2022-10-14T20:56:33.681Z,92.71
2022-10-14T20:59:03.285Z,93.38
2022-10-14T21:01:31.645Z,92.07
2022-10-14T21:04:01.459Z,92.24
2022-10-14T21:06:32.826Z,92.38
2022-10-14T21:09:01.387Z,91.11
2022-10-14T21:11:29.424Z,93.65
2022-10-14T21:13:59.079Z,92.60
2022-10-14T21:16:29.175Z,91.32
2022-10-14T21:18:58.537Z,91.21
2022-10-14T21:21:28.638Z,90.91
2022-10-14T21:23:59.195Z,92.43
2022-10-14T21:26:26.978Z,93.76
2022-10-14T21:28:57.016Z,93.25
2022-10-14T21:31:27.758Z,93.79
2022-10-14T21:33:59.922Z,93.40
2022-10-14T21:36:30.846Z,94.49
2022-10-14T21:39:01.121Z,94.10
2022-10-14T21:41:29.431Z,95.47
2022-10-14T21:43:59.233Z,95.77
2022-10-14T21:46:27.796Z,95.27
2022-10-14T21:48:57.521Z,94.28
2022-10-14T21:51:26.700Z,93.41
2022-10-14T21:53:55.039Z,91.95
2022-10-14T21:56:24.571Z,91.01
2022-10-14T21:58:52.742Z,92.08
2022-10-14T22:01:22.755Z,92.27
2022-10-14T22:03:54.320Z,91.67
2022-10-14T22:06:22.083Z,91.61
2022-10-14T22:08:54.622Z,92.61
2022-10-14T22:11:26.863Z,92.61
2022-10-14T22:13:55.770Z,92.34
2022-10-14T22:16:24.254Z,91.83
2022-10-14T22:18:53.772Z,93.47
2022-10-14T22:21:26.127Z,93.87
2022-10-14T22:23:53.943Z,93.06
2022-10-14T22:26:27.100Z,92.83
2022-10-14T22:29:01.699Z,92.04
2022-10-14T22:31:33.119Z,92.64
2022-10-14T22:34:01.308Z,92.12
2022-10-14T22:36:30.090Z,93.12
2022-10-14T22:38:59.752Z,93.55
2022-10-14T22:41:35.140Z,93.40
2022-10-14T22:44:04.813Z,94.13
2022-10-14T22:46:37.824Z,95.63
2022-10-14T22:49:06.079Z,95.68
2022-10-14T22:51:35.986Z,95.62
2022-10-14T22:54:04.554Z,95.39
2022-10-14T22:56:33.792Z,95.11
2022-10-14T22:59:03.143Z,96.06
2022-10-14T23:01:31.885Z,97.08
2022-10-14T23:04:00.915Z,95.73
2022-10-14T23:06:29.429Z,94.22
2022-10-14T23:08:59.810Z,93.71
2022-10-14T23:11:28.503Z,93.80
2022-10-14T23:13:59.153Z,93.27
2022-10-14T23:16:29.812Z,94.04
2022-10-14T23:18:59.675Z,94.05
2022-10-14T23:21:31.880Z,93.25
2022-10-14T23:24:03.746Z,93.58
2022-10-14T23:26:33.170Z,94.26
2022-10-14T23:29:04.396Z,94.65
2022-10-14T23:31:34.041Z,93.76
2022-10-14T23:34:03.493Z,92.84
2022-10-14T23:36:31.255Z,93.31
2022-10-14T23:38:59.395Z,92.89
2022-10-14T23:41:27.133Z,92.40
2022-10-14T23:43:56.664Z,91.62
2022-10-14T23:46:25.822Z,93.18
2022-10-14T23:49:06.604Z,92.55
2022-10-14T23:51:36.174Z,92.35
2022-10-14T23:54:04.089Z,90.53
2022-10-14T23:56:31.914Z,91.13
2022-10-14T23:58:59.654Z,90.68
